Airfield :
LOGIN :

Register | Disclaimer

   EN    FR    IT 

 










Legend :    VFR   Marginal VFR   IFR   Intensive IFR   Very Intensive IFR
Visi :
Ceiling :
>= 8 km
>= 3000ft
5 to 8 km
1000 to 3000 ft
1500m to 5 km
500 to 1000 ft
800 to 1500m
200 to 500 ft
< 800m
< 200 ft
Symbols :   Thunderstorms  Fog  Heavy snow  Heavy precipitations  Wind > 20 kt
SIGMETs :     Misc.  Thunderstorms  Icing  Turbulence  Mountain Waves  Volcanic Ashes






- Airport Elevation : 461 ft
- IATA code : WIE


ETOU - Wiesbaden Army

CURRENT METAR :
  • 192156Z AUTO 00000KT 9999 CLR 02/01 A3010 RMK AO2 SLP201 T00150011 $

EXPIRED METARs :
  • 192056Z AUTO 00000KT 9999 CLR 02/01 A3010 RMK AO2 SLP201 T00220013 52005 $
  • 192016Z AUTO 00000KT 9999 SCT028 03/02 A3009 RMK AO2 SLP197 $
  • 192006Z AUTO 00000KT 9999 BKN028 BKN034 03/02 A3009 RMK AO2 CIG 028V034 SLP197 $
  • 191956Z AUTO 00000KT 9999 SCT027 BKN034 03/02 A3010 RMK AO2 SLP201 T00320020 $

TAF AMD TAF ETOU
Valid from the 19 at 22:00 until the 21 at 01:00 UTC


1922/2101 VRB06KT 9999 BKN020 QNH3010INS
BECMG 1923/1924 VRB06KT 5000 BR OVC020 QNH3008INS
BECMG 2008/2009 08006KT 9999 NSW BKN020 QNH2990INS
BECMG 2022/2023 VRB6KT 5000 BR BKN020 QNH2990INS TX08/2014Z TNM02/2000Z



MET'MAP, your aeronautical weather chart ! - Copyright ORBIFLY December 2007 - Disclaimer

ORBIFLY MET'MAP TEAM :

Programming & Development : Alexandra Zaïnal
Concept & Development : Baudouin d'Aumeries
Co-Development & Prog : Marc-Olivier Méhu
Technical & hardware support : Manuel Goepfert

Contact : metmap@orbifly.com




SOURCES & CREDITS :

   NOAA